createdAt,value
2019-03-09T00:00:26.803Z,99639.10
2019-03-09T00:02:55.575Z,99635.77
2019-03-09T00:05:22.468Z,99637.47
2019-03-09T00:07:49.436Z,99640.41
2019-03-09T00:10:16.401Z,99637.83
2019-03-09T00:12:43.681Z,99639.08
2019-03-09T00:15:10.921Z,99641.11
2019-03-09T00:17:38.172Z,99634.70
2019-03-09T00:20:05.080Z,99637.61
2019-03-09T00:22:32.052Z,99633.31
2019-03-09T00:24:59.315Z,99637.49
2019-03-09T00:27:29.703Z,99625.56
2019-03-09T00:29:54.779Z,99625.92
2019-03-09T00:32:22.401Z,99629.32
2019-03-09T00:34:49.400Z,99620.84
2019-03-09T00:37:16.716Z,99617.02
2019-03-09T00:39:43.654Z,99617.84
2019-03-09T00:42:10.907Z,99616.58
2019-03-09T00:44:37.872Z,99619.05
2019-03-09T00:47:05.413Z,99611.36
2019-03-09T00:49:32.413Z,99610.06
2019-03-09T00:51:59.403Z,99599.07
2019-03-09T00:54:26.355Z,99605.37
2019-03-09T00:59:35.649Z,99602.34
2019-03-09T01:02:02.582Z,99600.73
2019-03-09T01:04:29.827Z,99599.86
2019-03-09T01:06:56.852Z,99597.25
2019-03-09T01:09:23.831Z,99590.80
2019-03-09T01:11:50.797Z,99587.38
2019-03-09T01:14:17.727Z,99587.73
2019-03-09T01:16:45.112Z,99593.59
2019-03-09T01:19:14.623Z,99588.48
2019-03-09T01:21:41.563Z,99581.69
2019-03-09T01:24:08.508Z,99572.79
2019-03-09T01:26:35.458Z,99574.91
2019-03-09T01:29:02.327Z,99567.30
2019-03-09T01:31:29.601Z,99551.22
2019-03-09T01:33:56.484Z,99564.02
2019-03-09T01:36:23.797Z,99561.86
2019-03-09T01:38:51.053Z,99554.65
2019-03-09T01:41:18.329Z,99553.80
2019-03-09T01:43:45.271Z,99550.41
2019-03-09T01:46:12.163Z,99550.83
2019-03-09T01:48:39.044Z,99551.30
2019-03-09T01:51:05.957Z,99552.56
2019-03-09T01:53:36.648Z,99550.02
2019-03-09T01:56:01.501Z,99541.96
2019-03-09T01:58:28.651Z,99546.27
2019-03-09T02:00:55.556Z,99549.66
2019-03-09T02:03:22.535Z,99545.39
2019-03-09T02:05:50.811Z,99546.66
2019-03-09T02:08:18.074Z,99537.78
2019-03-09T02:10:45.320Z,99539.84
2019-03-09T02:13:12.821Z,99541.05
2019-03-09T02:15:40.401Z,99530.38
2019-03-09T02:18:07.704Z,99529.95
2019-03-09T02:20:34.759Z,99510.97
2019-03-09T02:23:01.741Z,99508.43
2019-03-09T02:25:28.691Z,99502.95
2019-03-09T02:27:55.912Z,99496.16
2019-03-09T02:30:22.840Z,99489.77
2019-03-09T02:32:50.098Z,99479.17
2019-03-09T02:35:17.083Z,99471.14
2019-03-09T02:37:44.004Z,99460.97
2019-03-09T02:40:10.876Z,99462.70
2019-03-09T02:42:37.840Z,99456.34
2019-03-09T02:45:06.045Z,99457.22
2019-03-09T02:47:33.301Z,99451.75
2019-03-09T02:50:00.449Z,99447.58
2019-03-09T02:52:27.583Z,99443.83
2019-03-09T02:54:54.548Z,99443.83
2019-03-09T02:57:21.512Z,99442.10
2019-03-09T02:59:48.746Z,99434.47
2019-03-09T03:02:15.725Z,99435.70
2019-03-09T03:04:42.694Z,99440.38
2019-03-09T03:07:09.698Z,99432.38
2019-03-09T03:09:36.576Z,99422.67
2019-03-09T03:12:03.481Z,99426.17
2019-03-09T03:14:30.469Z,99418.15
2019-03-09T03:16:57.974Z,99415.61
2019-03-09T03:19:24.937Z,99402.50
2019-03-09T03:21:52.170Z,99396.60
2019-03-09T03:24:19.085Z,99394.98
2019-03-09T03:26:45.985Z,99388.66
2019-03-09T03:29:12.959Z,99396.70
2019-03-09T03:31:40.299Z,99391.20
2019-03-09T03:34:07.528Z,99381.48
2019-03-09T03:36:34.770Z,99379.79
2019-03-09T03:39:02.655Z,99373.47
2019-03-09T03:41:31.243Z,99375.63
2019-03-09T03:43:58.233Z,99371.38
2019-03-09T03:46:25.521Z,99364.64
2019-03-09T03:48:52.548Z,99355.73
2019-03-09T03:51:20.162Z,99350.27
2019-03-09T03:53:47.141Z,99336.78
2019-03-09T03:56:14.118Z,99328.72
2019-03-09T03:58:41.087Z,99320.64
2019-03-09T04:01:08.312Z,99312.20
2019-03-09T04:03:35.305Z,99309.97
2019-03-09T04:06:03.919Z,99306.08
2019-03-09T04:08:30.947Z,99309.47
2019-03-09T04:10:58.264Z,99304.81
2019-03-09T04:13:25.213Z,99303.54
2019-03-09T04:15:52.446Z,99303.61
2019-03-09T04:18:19.351Z,99292.66
2019-03-09T04:20:46.676Z,99286.31
2019-03-09T04:23:13.653Z,99279.95
2019-03-09T04:25:40.537Z,99275.72
2019-03-09T04:28:07.517Z,99267.66
2019-03-09T04:30:34.492Z,99276.14
2019-03-09T04:33:01.454Z,99275.64
2019-03-09T04:35:29.448Z,99252.76
2019-03-09T04:37:58.529Z,99256.14
2019-03-09T04:40:25.793Z,99247.67
2019-03-09T04:42:52.690Z,99248.48
2019-03-09T04:45:19.663Z,99238.31
2019-03-09T04:47:46.686Z,99234.92
2019-03-09T04:50:22.296Z,99219.23
2019-03-09T04:52:44.561Z,99220.51
2019-03-09T04:55:11.505Z,99218.77
2019-03-09T04:57:38.794Z,99210.26
2019-03-09T05:00:05.718Z,99199.66
2019-03-09T05:02:32.730Z,99196.69
2019-03-09T05:04:59.608Z,99191.60
2019-03-09T05:07:26.492Z,99192.87
2019-03-09T05:09:53.490Z,99185.63
2019-03-09T05:12:20.728Z,99183.05
2019-03-09T05:14:47.623Z,99172.38
2019-03-09T05:17:14.903Z,99164.28
2019-03-09T05:19:41.881Z,99165.93
2019-03-09T05:22:08.793Z,99155.67
2019-03-09T05:24:36.160Z,99150.59
2019-03-09T05:27:03.180Z,99150.55
2019-03-09T05:29:30.462Z,99138.17
2019-03-09T05:31:57.432Z,99137.70
2019-03-09T05:34:30.802Z,99132.61
2019-03-09T05:36:57.690Z,99142.78
2019-03-09T05:39:24.661Z,99146.77
2019-03-09T05:41:51.601Z,99150.20
2019-03-09T05:44:18.788Z,99138.25
2019-03-09T05:46:45.722Z,99134.86
2019-03-09T05:49:12.870Z,99126.73
2019-03-09T05:51:39.766Z,99115.28
2019-03-09T05:54:07.091Z,99115.19
2019-03-09T05:56:34.068Z,99118.95
2019-03-09T05:59:01.375Z,99112.50
2019-03-09T06:01:28.644Z,99111.23
2019-03-09T06:03:55.992Z,99106.15
2019-03-09T06:06:23.312Z,99099.38
2019-03-09T06:08:50.941Z,99098.61
2019-03-09T06:11:18.149Z,99088.86
2019-03-09T06:13:45.039Z,99099.08
2019-03-09T06:16:11.947Z,99088.61
2019-03-09T06:18:41.974Z,99075.12
2019-03-09T06:21:10.899Z,99080.60
2019-03-09T06:23:38.596Z,99089.41
2019-03-09T06:26:05.522Z,99086.20
2019-03-09T06:28:32.561Z,99082.00
2019-03-09T06:31:11.721Z,99082.09
2019-03-09T06:33:39.127Z,99080.73
2019-03-09T06:36:06.052Z,99069.80
2019-03-09T06:38:32.937Z,99063.78
2019-03-09T06:41:03.264Z,99061.56
2019-03-09T06:43:30.832Z,99067.88
2019-03-09T06:45:57.435Z,99063.73
2019-03-09T06:48:24.897Z,99052.28
2019-03-09T06:50:51.847Z,99047.63
2019-03-09T06:53:18.808Z,99045.47
2019-03-09T06:55:45.774Z,99045.84
2019-03-09T06:58:13.608Z,99048.85
2019-03-09T07:00:40.983Z,99048.85
2019-03-09T07:03:08.172Z,99050.59
2019-03-09T07:05:35.530Z,99046.87
2019-03-09T07:10:53.701Z,99039.24
2019-03-09T07:13:20.585Z,99045.95
2019-03-09T07:15:47.462Z,99036.55
2019-03-09T07:18:14.746Z,99035.23
2019-03-09T07:20:42.000Z,99040.27
2019-03-09T07:23:08.897Z,99044.89
2019-03-09T07:25:35.858Z,99039.89
2019-03-09T07:28:02.785Z,99037.81
2019-03-09T07:30:29.682Z,99054.76
2019-03-09T07:32:57.071Z,99054.43
2019-03-09T07:35:24.051Z,99049.30
2019-03-09T07:37:51.343Z,99072.69
2019-03-09T07:40:18.289Z,99043.41
2019-03-09T07:42:45.581Z,99070.45
2019-03-09T07:45:13.539Z,99072.52
2019-03-09T07:47:40.875Z,99063.28
2019-03-09T07:50:07.780Z,99038.32
2019-03-09T07:52:34.752Z,99027.34
2019-03-09T07:55:01.987Z,99028.80
2019-03-09T07:57:29.243Z,99033.08
2019-03-09T07:59:56.146Z,99020.75
2019-03-09T08:02:23.118Z,99023.67
2019-03-09T08:04:50.133Z,99034.59
2019-03-09T08:07:17.454Z,99019.97
2019-03-09T08:09:44.790Z,99009.28
2019-03-09T08:12:11.781Z,99020.17
2019-03-09T08:14:38.889Z,99019.28
2019-03-09T08:17:06.024Z,99014.99
2019-03-09T08:19:33.333Z,99040.44
2019-03-09T08:22:04.847Z,99047.09
2019-03-09T08:24:31.805Z,99045.98
2019-03-09T08:26:58.793Z,99036.80
2019-03-09T08:29:25.769Z,99035.17
2019-03-09T08:31:52.817Z,99025.48
2019-03-09T08:34:19.820Z,99048.01
2019-03-09T08:36:46.782Z,99028.33
2019-03-09T08:39:15.316Z,99026.91
2019-03-09T08:41:42.582Z,99034.80
2019-03-09T08:44:09.602Z,99040.13
2019-03-09T08:46:41.111Z,99040.61
2019-03-09T08:49:08.132Z,99058.95
2019-03-09T08:51:38.570Z,99054.06
2019-03-09T08:54:06.616Z,99043.61
2019-03-09T08:56:33.738Z,99024.43
2019-03-09T08:59:01.692Z,99041.14
2019-03-09T09:01:29.063Z,99039.05
2019-03-09T09:03:56.330Z,99040.11
2019-03-09T09:06:23.238Z,99036.36
2019-03-09T09:08:50.189Z,99024.81
2019-03-09T09:11:17.207Z,99043.17
2019-03-09T09:13:45.825Z,99048.02
2019-03-09T09:16:13.114Z,99046.69
2019-03-09T09:18:40.276Z,99058.06
2019-03-09T09:21:07.528Z,99048.57
2019-03-09T09:23:34.498Z,99052.95
2019-03-09T09:26:01.486Z,99055.97
2019-03-09T09:28:30.021Z,99061.89
2019-03-09T09:30:57.348Z,99054.17
2019-03-09T09:33:26.258Z,99054.46
2019-03-09T09:35:53.553Z,99057.81
2019-03-09T09:38:20.916Z,99074.34
2019-03-09T09:40:48.506Z,99075.13
2019-03-09T09:43:15.476Z,99066.31
2019-03-09T09:45:42.466Z,99070.02
2019-03-09T09:48:12.760Z,99077.14
2019-03-09T09:50:39.762Z,99061.64
2019-03-09T09:53:08.425Z,99066.93
2019-03-09T09:55:35.760Z,99071.60
2019-03-09T09:58:02.739Z,99081.41
2019-03-09T10:00:29.787Z,99076.97
2019-03-09T10:02:56.830Z,99072.58
2019-03-09T10:05:23.907Z,99061.41
2019-03-09T10:07:51.357Z,99072.95
2019-03-09T10:10:18.274Z,99083.70
2019-03-09T10:12:45.255Z,99096.53
2019-03-09T10:15:13.712Z,99092.30
2019-03-09T10:17:41.030Z,99098.36
2019-03-09T10:20:07.990Z,99110.22
2019-03-09T10:22:37.968Z,99100.07
2019-03-09T10:25:04.966Z,99095.51
2019-03-09T10:27:31.951Z,99096.84
2019-03-09T10:29:58.914Z,99112.18
2019-03-09T10:32:26.139Z,99110.57
2019-03-09T10:34:53.328Z,99114.47
2019-03-09T10:37:20.813Z,99114.11
2019-03-09T10:39:48.332Z,99134.25
2019-03-09T10:42:15.345Z,99119.22
2019-03-09T10:44:42.743Z,99108.87
2019-03-09T10:47:09.686Z,99097.64
2019-03-09T10:49:36.938Z,99121.93
2019-03-09T10:52:03.920Z,99116.38
2019-03-09T10:54:36.368Z,99119.63
2019-03-09T10:57:01.219Z,99125.11
2019-03-09T10:59:28.164Z,99121.65
2019-03-09T11:01:55.088Z,99122.40
2019-03-09T11:04:27.673Z,99119.50
2019-03-09T11:06:50.697Z,99118.34
2019-03-09T11:09:18.044Z,99123.23
2019-03-09T11:11:45.024Z,99123.11
2019-03-09T11:14:12.307Z,99121.84
2019-03-09T11:16:47.032Z,99114.53
2019-03-09T11:19:13.983Z,99128.91
2019-03-09T11:21:41.130Z,99122.05
2019-03-09T11:24:11.347Z,99121.28
2019-03-09T11:26:40.670Z,99117.81
2019-03-09T11:29:07.664Z,99112.55
2019-03-09T11:31:34.948Z,99107.53
2019-03-09T11:34:02.370Z,99089.20
2019-03-09T11:36:31.547Z,99107.21
2019-03-09T11:38:58.637Z,99095.77
2019-03-09T11:41:34.509Z,99097.71
2019-03-09T11:44:02.074Z,99095.81
2019-03-09T11:46:42.049Z,99088.08
2019-03-09T11:49:09.059Z,99093.91
2019-03-09T11:51:39.107Z,99083.31
2019-03-09T11:57:00.705Z,99087.52
2019-03-09T11:59:24.739Z,99083.31
2019-03-09T12:01:51.739Z,99091.35
2019-03-09T12:04:18.736Z,99080.22
2019-03-09T12:06:45.734Z,99100.67
2019-03-09T12:09:13.189Z,99092.91
2019-03-09T12:11:40.712Z,99092.44
2019-03-09T12:14:07.980Z,99098.39
2019-03-09T12:16:35.269Z,99098.39
2019-03-09T12:19:02.246Z,99084.77
2019-03-09T12:21:29.468Z,99102.17
2019-03-09T12:24:03.089Z,99098.58
2019-03-09T12:26:32.681Z,99096.49
2019-03-09T12:28:59.699Z,99094.87
2019-03-09T12:31:26.691Z,99085.62
2019-03-09T12:34:05.028Z,99107.97
2019-03-09T12:36:31.973Z,99099.14
2019-03-09T12:39:00.574Z,99118.47
2019-03-09T12:41:29.236Z,99100.83
2019-03-09T12:43:56.198Z,99092.66
2019-03-09T12:46:23.295Z,99091.84
2019-03-09T12:48:50.576Z,99084.35
2019-03-09T12:51:20.089Z,99085.82
2019-03-09T12:53:47.046Z,99084.73
2019-03-09T12:56:14.016Z,99085.23
2019-03-09T12:58:41.069Z,99089.47
2019-03-09T13:01:09.687Z,99098.67
2019-03-09T13:03:39.126Z,99091.31
2019-03-09T13:06:06.114Z,99093.53
2019-03-09T13:08:36.343Z,99099.39
2019-03-09T13:11:14.890Z,99106.75
2019-03-09T13:13:41.969Z,99101.69
2019-03-09T13:16:08.945Z,99105.59
2019-03-09T13:18:43.772Z,99097.39
2019-03-09T13:21:11.193Z,99104.92
2019-03-09T13:23:38.554Z,99089.71
2019-03-09T13:26:11.144Z,99093.26
2019-03-09T13:28:46.699Z,99081.88
2019-03-09T13:31:13.806Z,99077.80
2019-03-09T13:33:40.814Z,99071.79
2019-03-09T13:36:09.048Z,99061.08
2019-03-09T13:38:36.182Z,99059.80
2019-03-09T13:41:03.254Z,99049.40
2019-03-09T13:43:30.787Z,99044.22
2019-03-09T13:45:57.780Z,99035.66
2019-03-09T13:48:25.122Z,99038.22
2019-03-09T13:50:52.125Z,99046.28
2019-03-09T13:53:19.424Z,99031.77
2019-03-09T13:55:46.854Z,99021.48
2019-03-09T13:58:13.815Z,99011.80
2019-03-09T14:00:41.095Z,98999.45
2019-03-09T14:03:08.372Z,98991.86
2019-03-09T14:05:35.314Z,98986.75
2019-03-09T14:08:02.586Z,98984.56
2019-03-09T14:10:29.854Z,98984.97
2019-03-09T14:12:57.049Z,98978.58
2019-03-09T14:15:25.027Z,98965.81
2019-03-09T14:17:52.000Z,98952.63
2019-03-09T14:20:18.945Z,98975.69
2019-03-09T14:22:46.013Z,98988.03
2019-03-09T14:25:13.250Z,98981.83
2019-03-09T14:27:40.482Z,98989.73
2019-03-09T14:30:07.404Z,98986.91
2019-03-09T14:32:34.392Z,98983.64
2019-03-09T14:35:01.640Z,98991.36
2019-03-09T14:37:28.724Z,99003.31
2019-03-09T14:39:55.700Z,98998.46
2019-03-09T14:42:22.651Z,99010.86
2019-03-09T14:44:49.978Z,98995.00
2019-03-09T14:47:16.914Z,99002.66
2019-03-09T14:49:44.094Z,99000.95
2019-03-09T14:52:11.425Z,98995.00
2019-03-09T14:54:38.394Z,98986.47
2019-03-09T14:57:05.407Z,98983.91
2019-03-09T14:59:32.572Z,98985.56
2019-03-09T15:01:59.789Z,98979.55
2019-03-09T15:04:26.825Z,98962.45
2019-03-09T15:06:53.819Z,98963.86
2019-03-09T15:09:20.754Z,98956.56
2019-03-09T15:11:47.807Z,98959.13
2019-03-09T15:14:15.027Z,98965.91
2019-03-09T15:16:44.510Z,98957.03
2019-03-09T15:19:11.503Z,98943.80
2019-03-09T15:21:42.193Z,98941.24
2019-03-09T15:24:09.319Z,98927.26
2019-03-09T15:26:36.555Z,98934.98
2019-03-09T15:29:03.515Z,98932.55
2019-03-09T15:31:30.467Z,98915.59
2019-03-09T15:33:59.240Z,98924.53
2019-03-09T15:36:26.329Z,98917.36
2019-03-09T15:38:53.727Z,98922.47
2019-03-09T15:41:20.993Z,98912.25
2019-03-09T15:43:48.489Z,98912.72
2019-03-09T15:46:15.742Z,98913.03
2019-03-09T15:48:45.518Z,98906.27
2019-03-09T15:51:12.814Z,98878.19
2019-03-09T15:53:39.825Z,98898.86
2019-03-09T15:56:06.771Z,98883.34
2019-03-09T15:58:33.783Z,98866.55
2019-03-09T16:01:01.018Z,98857.95
2019-03-09T16:03:28.281Z,98859.97
2019-03-09T16:05:56.728Z,98832.00
2019-03-09T16:08:24.191Z,98828.50
2019-03-09T16:10:51.486Z,98808.38
2019-03-09T16:13:20.298Z,98798.22
2019-03-09T16:15:47.412Z,98784.58
2019-03-09T16:18:14.374Z,98772.81
2019-03-09T16:20:41.615Z,98771.30
2019-03-09T16:23:09.118Z,98747.98
2019-03-09T16:25:38.828Z,98742.94
2019-03-09T16:28:07.416Z,98749.09
2019-03-09T16:30:34.375Z,98748.02
2019-03-09T16:33:01.296Z,98735.28
2019-03-09T16:35:32.055Z,98734.85
2019-03-09T16:37:59.310Z,98748.45
2019-03-09T16:40:26.587Z,98777.42
2019-03-09T16:42:54.972Z,98774.70
2019-03-09T16:45:22.140Z,98767.54
2019-03-09T16:47:49.492Z,98753.56
2019-03-09T16:50:16.521Z,98754.47
2019-03-09T16:52:43.476Z,98752.28
2019-03-09T16:55:10.458Z,98750.64
2019-03-09T16:57:37.471Z,98741.00
2019-03-09T17:00:04.713Z,98732.91
2019-03-09T17:02:33.619Z,98744.05
2019-03-09T17:05:00.835Z,98721.28
2019-03-09T17:07:29.987Z,98701.23
2019-03-09T17:09:59.441Z,98701.70
2019-03-09T17:12:26.544Z,98696.52
2019-03-09T17:14:53.530Z,98698.23
2019-03-09T17:17:20.561Z,98700.79
2019-03-09T17:19:47.633Z,98686.82
2019-03-09T17:22:14.650Z,98681.64
2019-03-09T17:24:41.651Z,98667.17
2019-03-09T17:27:08.912Z,98666.33
2019-03-09T17:29:35.942Z,98675.27
2019-03-09T17:32:02.887Z,98669.32
2019-03-09T17:34:31.422Z,98671.88
2019-03-09T17:36:58.553Z,98667.67
2019-03-09T17:39:26.304Z,98668.58
2019-03-09T17:41:53.343Z,98654.14
2019-03-09T17:44:20.321Z,98637.18
2019-03-09T17:46:48.076Z,98643.19
2019-03-09T17:49:14.963Z,98644.47
2019-03-09T17:51:42.364Z,98629.16
2019-03-09T17:54:11.373Z,98606.92
2019-03-09T17:56:38.491Z,98589.05
2019-03-09T17:59:05.491Z,98570.05
2019-03-09T18:01:35.003Z,98578.18
2019-03-09T18:04:01.988Z,98575.00
2019-03-09T18:06:29.043Z,98593.30
2019-03-09T18:08:59.323Z,98577.62
2019-03-09T18:11:26.336Z,98583.16
2019-03-09T18:13:53.590Z,98595.22
2019-03-09T18:16:22.900Z,98585.63
2019-03-09T18:18:51.557Z,98589.98
2019-03-09T18:21:18.461Z,98577.73
2019-03-09T18:23:45.942Z,98567.16
2019-03-09T18:26:12.972Z,98564.21
2019-03-09T18:28:42.480Z,98553.13
2019-03-09T18:31:10.022Z,98566.90
2019-03-09T18:33:37.066Z,98586.03
2019-03-09T18:36:06.428Z,98583.11
2019-03-09T18:38:33.410Z,98601.04
2019-03-09T18:41:00.429Z,98607.48
2019-03-09T18:43:30.249Z,98667.44
2019-03-09T18:45:57.199Z,98651.02
2019-03-09T18:48:24.804Z,98644.84
2019-03-09T18:50:55.889Z,98628.02
2019-03-09T18:53:25.989Z,98630.70
2019-03-09T18:55:59.175Z,98620.23
2019-03-09T18:58:23.519Z,98622.04
2019-03-09T19:00:50.443Z,98630.44
2019-03-09T19:03:17.984Z,98637.71
2019-03-09T19:05:45.292Z,98646.27
2019-03-09T19:08:12.408Z,98681.19
2019-03-09T19:10:48.549Z,98688.05
2019-03-09T19:13:18.302Z,98712.70
2019-03-09T19:15:45.591Z,98696.81
2019-03-09T19:18:12.876Z,98682.92
2019-03-09T19:20:41.957Z,98688.76
2019-03-09T19:23:09.211Z,98697.42
2019-03-09T19:25:36.493Z,98694.88
2019-03-09T19:28:04.265Z,98706.72
2019-03-09T19:30:31.629Z,98717.70
2019-03-09T19:33:01.422Z,98739.59
2019-03-09T19:35:29.617Z,98724.89
2019-03-09T19:37:56.740Z,98726.47
2019-03-09T19:40:25.486Z,98741.62
2019-03-09T19:42:54.212Z,98763.69
2019-03-09T19:45:21.861Z,98764.61
2019-03-09T19:47:50.948Z,98768.09
2019-03-09T19:50:17.978Z,98783.61
2019-03-09T19:52:47.880Z,98781.00
2019-03-09T19:55:17.276Z,98795.56
2019-03-09T19:57:53.360Z,98800.77
2019-03-09T20:00:23.922Z,98819.09
2019-03-09T20:02:55.332Z,98805.41
2019-03-09T20:05:29.058Z,98857.41
2019-03-09T20:08:12.509Z,98846.73
2019-03-09T20:10:44.851Z,98869.00
2019-03-09T20:13:17.070Z,98871.19
2019-03-09T20:15:44.193Z,98892.39
2019-03-09T20:18:11.878Z,98883.00
2019-03-09T20:20:43.352Z,98910.80
2019-03-09T20:23:09.572Z,98913.55
2019-03-09T20:25:36.757Z,98926.97
2019-03-09T20:28:05.914Z,98933.39
2019-03-09T20:30:32.574Z,98942.09
2019-03-09T20:33:00.090Z,98944.73
2019-03-09T20:35:28.572Z,98939.31
2019-03-09T20:37:56.624Z,98926.77
2019-03-09T20:40:31.942Z,98951.31
2019-03-09T20:42:59.732Z,98944.48
2019-03-09T20:45:31.113Z,98966.17
2019-03-09T20:47:58.782Z,98942.56
2019-03-09T20:50:33.929Z,98963.56
2019-03-09T20:53:03.978Z,98971.64
2019-03-09T20:55:35.234Z,98997.89
2019-03-09T20:58:07.137Z,98987.50
2019-03-09T21:00:34.223Z,98978.35
2019-03-09T21:03:02.273Z,99004.59
2019-03-09T21:05:36.808Z,99019.91
2019-03-09T21:08:10.591Z,99025.63
2019-03-09T21:10:42.219Z,99047.35
2019-03-09T21:13:14.885Z,99057.45
2019-03-09T21:15:49.817Z,99055.56
2019-03-09T21:18:16.609Z,99077.60
2019-03-09T21:20:44.311Z,99101.73
2019-03-09T21:23:11.533Z,99086.51
2019-03-09T21:25:42.956Z,99095.70
2019-03-09T21:28:10.108Z,99106.36
2019-03-09T21:30:37.671Z,99127.17
2019-03-09T21:33:04.611Z,99126.80
2019-03-09T21:35:37.304Z,99145.33
2019-03-09T21:38:04.339Z,99140.41
2019-03-09T21:40:34.782Z,99150.97
2019-03-09T21:43:02.501Z,99135.08
2019-03-09T21:45:35.483Z,99159.87
2019-03-09T21:48:01.284Z,99169.99
2019-03-09T21:50:29.279Z,99171.31
2019-03-09T21:52:56.336Z,99179.06
2019-03-09T21:55:25.324Z,99210.95
2019-03-09T21:57:55.639Z,99189.86
2019-03-09T22:00:23.164Z,99205.56
2019-03-09T22:02:50.689Z,99209.84
2019-03-09T22:05:19.400Z,99208.06
2019-03-09T22:07:51.398Z,99211.00
2019-03-09T22:10:21.405Z,99230.06
2019-03-09T22:12:48.382Z,99226.22
2019-03-09T22:15:16.642Z,99229.56
2019-03-09T22:17:43.912Z,99235.92
2019-03-09T22:20:11.289Z,99242.73
2019-03-09T22:22:39.502Z,99244.59
2019-03-09T22:25:06.493Z,99255.33
2019-03-09T22:27:36.300Z,99252.52
2019-03-09T22:30:13.944Z,99269.53
2019-03-09T22:32:43.345Z,99270.27
2019-03-09T22:35:11.323Z,99272.34
2019-03-09T22:37:41.425Z,99283.75
2019-03-09T22:40:11.118Z,99276.91
2019-03-09T22:42:40.683Z,99290.92
2019-03-09T22:45:16.097Z,99288.80
2019-03-09T22:47:42.272Z,99291.27
2019-03-09T22:50:10.240Z,99288.27
2019-03-09T22:52:37.606Z,99301.41
2019-03-09T22:55:04.697Z,99309.84
2019-03-09T22:57:31.650Z,99310.72
2019-03-09T22:59:58.543Z,99307.44
2019-03-09T23:02:30.441Z,99313.41
2019-03-09T23:04:59.470Z,99311.82
2019-03-09T23:07:32.054Z,99320.82
2019-03-09T23:10:00.058Z,99317.08
2019-03-09T23:12:27.391Z,99322.72
2019-03-09T23:14:56.387Z,99335.85
2019-03-09T23:17:24.695Z,99339.24
2019-03-09T23:19:51.909Z,99341.81
2019-03-09T23:22:23.203Z,99338.50
2019-03-09T23:24:50.629Z,99339.34
2019-03-09T23:27:17.637Z,99353.70
2019-03-09T23:29:44.760Z,99348.66
2019-03-09T23:32:11.778Z,99358.37
2019-03-09T23:34:38.758Z,99360.09
2019-03-09T23:37:05.807Z,99358.01
2019-03-09T23:39:32.783Z,99361.49
2019-03-09T23:41:59.780Z,99372.11
2019-03-09T23:50:25.418Z,99381.86
2019-03-09T23:52:53.634Z,99393.13
2019-03-09T23:55:22.997Z,99398.52
2019-03-09T23:57:49.191Z,99385.25
